Time;durP1;ratioP1;P1;durP2;ratioP2;P2;SDS_P1;SDS_P2;PMS_P1;PMS_P2;Temp;Humidity;BMP_temperature;BMP_pressure;BME280_temperature;BME280_humidity;BME280_pressure;Samples;Min_cycle;Max_cycle;Signal;HPM_P1;HPM_P2
2021/04/13 00:01:11;;;;;;;0.27;0.17;;;;;;;1.93;100.00;101585.03;5057579;28;20442;-60
2021/04/13 00:03:41;;;;;;;0.20;0.10;;;;;;;1.84;100.00;101592.63;5070088;28;20881;-60
2021/04/13 00:06:09;;;;;;;0.20;0.10;;;;;;;1.71;100.00;101590.53;5063145;28;20447;-60
2021/04/13 00:08:36;;;;;;;0.20;0.20;;;;;;;1.62;100.00;101582.38;5068548;28;20905;-60
2021/04/13 00:11:06;;;;;;;0.20;0.10;;;;;;;1.80;100.00;101579.41;5066850;28;20446;-60
2021/04/13 00:13:34;;;;;;;0.20;0.10;;;;;;;1.74;100.00;101582.75;5061442;28;20462;-60
2021/04/13 00:16:19;;;;;;;0.20;0.10;;;;;;;1.78;100.00;101579.34;5063063;28;20458;-60
2021/04/13 00:18:49;;;;;;;0.20;0.20;;;;;;;1.83;100.00;101576.88;5063460;28;20492;-60
2021/04/13 00:21:21;;;;;;;0.20;0.10;;;;;;;1.98;100.00;101580.78;5061645;28;20450;-60
2021/04/13 00:23:47;;;;;;;0.20;0.20;;;;;;;1.97;100.00;101578.13;5065064;28;20487;-60
2021/04/13 00:26:26;;;;;;;0.30;0.10;;;;;;;2.05;100.00;101571.34;5067104;28;20447;-60
2021/04/13 00:28:54;;;;;;;0.20;0.20;;;;;;;2.20;100.00;101577.03;5066972;28;20493;-60
2021/04/13 00:34:08;;;;;;;0.20;0.10;;;;;;;2.26;100.00;101571.03;5061774;28;20890;-60
2021/04/13 00:36:34;;;;;;;0.20;0.20;;;;;;;2.15;100.00;101575.09;5065430;28;20438;-60
2021/04/13 00:39:15;;;;;;;0.20;0.10;;;;;;;2.28;100.00;101577.22;5068055;28;20454;-60
2021/04/13 00:41:48;;;;;;;0.20;0.10;;;;;;;2.21;100.00;101576.16;5063858;28;20450;-60
2021/04/13 00:44:17;;;;;;;0.20;0.17;;;;;;;2.18;100.00;101580.44;5061679;28;20887;-60
2021/04/13 00:46:55;;;;;;;0.20;0.10;;;;;;;2.31;99.99;101583.41;5063139;28;20553;-60
2021/04/13 00:49:25;;;;;;;0.20;0.10;;;;;;;2.16;99.59;101582.13;5048318;28;20496;-60
2021/04/13 00:51:56;;;;;;;0.30;0.20;;;;;;;2.07;100.00;101582.78;5060880;28;20450;-60
2021/04/13 00:54:31;;;;;;;0.20;0.20;;;;;;;1.93;100.00;101582.41;5066924;28;20521;-60
2021/04/13 00:57:03;;;;;;;0.20;0.10;;;;;;;1.95;100.00;101582.47;5067895;28;20458;-60
2021/04/13 00:59:31;;;;;;;0.20;0.10;;;;;;;1.84;100.00;101583.88;5062262;28;20442;-60
2021/04/13 01:02:12;;;;;;;0.20;0.13;;;;;;;1.82;100.00;101582.97;5057977;28;20804;-60
2021/04/13 01:04:46;;;;;;;0.20;0.10;;;;;;;1.74;100.00;101581.00;5061663;28;20524;-60
2021/04/13 01:07:18;;;;;;;0.20;0.10;;;;;;;1.56;100.00;101587.47;5046796;28;20442;-60
2021/04/13 01:09:52;;;;;;;0.20;0.10;;;;;;;1.36;100.00;101590.38;5067800;28;20494;-60
2021/04/13 01:12:29;;;;;;;0.20;0.20;;;;;;;0.93;100.00;101596.03;5063230;28;20445;-60
2021/04/13 01:14:59;;;;;;;0.20;0.10;;;;;;;1.10;100.00;101599.19;5060608;28;20465;-60
2021/04/13 01:17:26;;;;;;;0.30;0.10;;;;;;;1.07;100.00;101601.69;5063468;28;20455;-60
2021/04/13 01:19:57;;;;;;;0.20;0.20;;;;;;;1.34;100.00;101604.28;5067221;28;20461;-60
2021/04/13 01:22:35;;;;;;;0.20;0.13;;;;;;;1.11;100.00;101607.09;5065576;28;20453;-60
2021/04/13 01:25:07;;;;;;;0.20;0.10;;;;;;;0.98;100.00;101609.28;5067649;28;20999;-58
2021/04/13 01:27:35;;;;;;;0.20;0.10;;;;;;;0.84;100.00;101607.13;5061687;28;20952;-58
2021/04/13 01:30:09;;;;;;;0.20;0.20;;;;;;;1.07;100.00;101601.69;5066284;28;20895;-58
2021/04/13 01:32:35;;;;;;;0.23;0.17;;;;;;;0.92;100.00;101599.50;5067265;28;20930;-58
2021/04/13 01:35:09;;;;;;;0.20;0.10;;;;;;;0.90;100.00;101606.41;5061893;28;20470;-58
2021/04/13 01:38:01;;;;;;;0.20;0.10;;;;;;;0.75;100.00;101609.44;5060231;28;20460;-59
2021/04/13 01:43:20;;;;;;;0.20;0.13;;;;;;;0.58;100.00;101601.03;5053141;28;20478;-58
2021/04/13 01:45:48;;;;;;;0.20;0.10;;;;;;;0.76;100.00;101600.75;5059969;28;20938;-58
2021/04/13 01:48:16;;;;;;;0.27;0.17;;;;;;;0.60;100.00;101614.16;5063222;28;20496;-58
2021/04/13 01:50:44;;;;;;;0.20;0.10;;;;;;;0.58;100.00;101608.00;5065791;28;20446;-58
2021/04/13 01:53:13;;;;;;;0.20;0.20;;;;;;;0.85;100.00;101611.50;5064541;28;20532;-58
2021/04/13 01:56:02;;;;;;;0.20;0.20;;;;;;;0.96;100.00;101610.94;5059775;28;20483;-58
2021/04/13 01:58:38;;;;;;;0.20;0.10;;;;;;;1.05;100.00;101608.63;5059953;28;20574;-58
2021/04/13 02:01:20;;;;;;;0.20;0.13;;;;;;;0.99;100.00;101605.81;5067433;28;20446;-58
2021/04/13 02:03:54;;;;;;;0.20;0.20;;;;;;;0.87;100.00;101612.44;5068063;28;20470;-58
2021/04/13 02:06:34;;;;;;;0.20;0.20;;;;;;;0.86;100.00;101615.91;5061130;28;20828;-58
2021/04/13 02:09:07;;;;;;;0.20;0.20;;;;;;;0.72;100.00;101617.19;5050007;28;20485;-58
2021/04/13 02:11:34;;;;;;;0.20;0.10;;;;;;;0.58;100.00;101613.22;5059460;28;20455;-58
2021/04/13 02:14:23;;;;;;;0.20;0.10;;;;;;;0.67;100.00;101618.75;5062966;28;20498;-59
2021/04/13 02:17:43;;;;;;;0.20;0.10;;;;;;;0.64;100.00;101623.88;5066278;28;20455;-58
2021/04/13 02:20:13;;;;;;;0.20;0.10;;;;;;;0.35;100.00;101622.91;5035349;28;20963;-59
2021/04/13 02:22:45;;;;;;;0.20;0.10;;;;;;;0.09;100.00;101623.72;5058349;28;20454;-58
2021/04/13 02:25:14;;;;;;;0.30;0.20;;;;;;;0.18;100.00;101619.72;5064452;28;20482;-58
2021/04/13 02:27:43;;;;;;;0.20;0.10;;;;;;;0.08;100.00;101622.84;5062213;28;20500;-58
2021/04/13 02:30:15;;;;;;;0.20;0.10;;;;;;;-0.09;100.00;101622.25;5063442;28;20491;-59
2021/04/13 02:32:45;;;;;;;0.20;0.20;;;;;;;0.04;100.00;101625.28;5066046;28;20504;-58
2021/04/13 02:35:22;;;;;;;0.20;0.10;;;;;;;0.03;100.00;101627.03;5062049;28;20500;-58
2021/04/13 02:37:55;;;;;;;0.20;0.10;;;;;;;-0.08;100.00;101628.34;5059152;28;20510;-59
2021/04/13 02:40:24;;;;;;;0.20;0.10;;;;;;;-0.01;100.00;101631.22;5059997;28;20865;-59
2021/04/13 02:42:55;;;;;;;0.20;0.17;;;;;;;-0.15;100.00;101631.56;5065953;28;20458;-57
2021/04/13 02:45:34;;;;;;;0.20;0.10;;;;;;;-0.19;100.00;101633.19;5066055;28;20446;-57
2021/04/13 02:48:17;;;;;;;0.20;0.10;;;;;;;-0.01;100.00;101627.72;5061289;28;20995;-58
2021/04/13 02:50:47;;;;;;;0.20;0.13;;;;;;;-0.05;100.00;101626.75;5059026;28;20554;-57
2021/04/13 02:53:16;;;;;;;0.20;0.10;;;;;;;-0.18;100.00;101632.34;5060310;28;20471;-57
2021/04/13 02:55:55;;;;;;;0.20;0.10;;;;;;;-0.10;100.00;101624.81;5064636;28;20447;-57
2021/04/13 02:58:26;;;;;;;0.20;0.10;;;;;;;-0.20;100.00;101631.41;5053999;28;20869;-57
2021/04/13 03:00:56;;;;;;;0.20;0.10;;;;;;;-0.04;100.00;101646.81;5058582;28;20940;-57
2021/04/13 03:03:30;;;;;;;0.20;0.10;;;;;;;-0.27;100.00;101638.94;5065680;28;20469;-58
2021/04/13 03:05:58;;;;;;;0.20;0.20;;;;;;;-0.37;100.00;101645.56;5060211;28;20446;-57
2021/04/13 03:08:28;;;;;;;0.20;0.10;;;;;;;-0.11;100.00;101647.44;5065921;28;20473;-57
2021/04/13 03:10:56;;;;;;;0.20;0.20;;;;;;;-0.18;100.00;101641.91;5062656;28;20867;-57
2021/04/13 03:13:33;;;;;;;0.20;0.10;;;;;;;-0.07;100.00;101651.94;5058665;28;20523;-57
2021/04/13 03:16:00;;;;;;;0.20;0.10;;;;;;;-0.33;100.00;101647.47;5059057;28;20442;-57
2021/04/13 03:18:48;;;;;;;0.20;0.10;;;;;;;-0.38;100.00;101660.38;5065812;28;20509;-57
2021/04/13 03:21:32;;;;;;;0.20;0.10;;;;;;;-0.61;100.00;101663.81;5065642;28;20504;-57
2021/04/13 03:24:01;;;;;;;0.20;0.10;;;;;;;-0.71;100.00;101665.16;5062745;28;20485;-57
2021/04/13 03:26:32;;;;;;;0.20;0.10;;;;;;;-0.66;100.00;101673.19;5058514;28;20446;-57
2021/04/13 03:29:07;;;;;;;0.20;0.20;;;;;;;-0.47;100.00;101667.84;5065415;28;20493;-58
2021/04/13 03:31:35;;;;;;;0.20;0.20;;;;;;;-0.54;100.00;101673.69;5057655;28;20502;-55
2021/04/13 03:34:03;;;;;;;0.20;0.10;;;;;;;-0.14;100.00;101667.31;5058261;28;20995;-58
2021/04/13 03:36:31;;;;;;;0.20;0.10;;;;;;;0.17;100.00;101666.72;5046194;28;20453;-57
2021/04/13 03:39:01;;;;;;;0.20;0.10;;;;;;;0.12;100.00;101665.66;5058197;28;20500;-57
2021/04/13 03:41:29;;;;;;;0.20;0.10;;;;;;;-0.14;100.00;101669.91;5065029;28;20443;-57
2021/04/13 03:43:58;;;;;;;0.20;0.10;;;;;;;-0.35;100.00;101678.75;5065263;28;20476;-56
2021/04/13 03:46:29;;;;;;;0.20;0.10;;;;;;;-0.45;100.00;101675.72;5060609;28;20493;-57
2021/04/13 03:48:56;;;;;;;0.20;0.10;;;;;;;-0.53;100.00;101685.00;5058460;28;20482;-56
2021/04/13 03:51:38;;;;;;;0.20;0.10;;;;;;;-0.49;100.00;101686.91;5062575;28;20451;-56
2021/04/13 03:54:32;;;;;;;0.20;0.10;;;;;;;-0.63;100.00;101684.63;5065318;28;20463;-56
2021/04/13 03:57:00;;;;;;;0.20;0.10;;;;;;;-0.27;100.00;101680.75;5067684;28;20935;-57
2021/04/13 03:59:30;;;;;;;0.20;0.10;;;;;;;-0.54;100.00;101678.91;5062942;28;20504;-57
2021/04/13 04:01:56;;;;;;;0.30;0.23;;;;;;;-0.46;100.00;101684.41;5068335;28;20996;-56
2021/04/13 04:04:32;;;;;;;0.20;0.10;;;;;;;-0.38;100.00;101691.69;5061839;28;20597;-56
2021/04/13 04:07:32;;;;;;;0.20;0.10;;;;;;;-0.43;100.00;101685.41;5063227;28;20483;-56
2021/04/13 04:09:58;;;;;;;0.20;0.10;;;;;;;-0.61;100.00;101685.59;5058155;28;20555;-56
2021/04/13 04:12:28;;;;;;;0.20;0.10;;;;;;;-0.67;100.00;101695.81;5062658;28;20450;-56
2021/04/13 04:15:09;;;;;;;0.20;0.10;;;;;;;-0.92;100.00;101701.75;5069344;28;20483;-56
2021/04/13 04:17:47;;;;;;;0.20;0.10;;;;;;;-0.88;100.00;101699.25;5067030;28;20446;-56
2021/04/13 04:20:14;;;;;;;0.20;0.10;;;;;;;-0.72;100.00;101693.81;5069224;28;20456;-56
2021/04/13 04:22:50;;;;;;;0.20;0.10;;;;;;;-0.68;100.00;101698.34;5068687;28;20454;-56
2021/04/13 04:25:28;;;;;;;0.20;0.10;;;;;;;-0.90;100.00;101704.41;5062129;28;20465;-56
2021/04/13 04:27:57;;;;;;;0.20;0.10;;;;;;;-0.95;100.00;101704.25;5061605;28;20449;-56
2021/04/13 04:30:33;;;;;;;0.20;0.10;;;;;;;-0.88;100.00;101707.97;5065377;28;20490;-56
2021/04/13 04:33:01;;;;;;;0.20;0.10;;;;;;;-0.38;100.00;101716.94;5068242;28;20862;-56
2021/04/13 04:35:44;;;;;;;0.30;0.20;;;;;;;-0.13;100.00;101708.31;5066692;28;20454;-56
2021/04/13 04:38:13;;;;;;;0.20;0.10;;;;;;;-0.30;100.00;101710.25;5067271;28;20451;-56
2021/04/13 04:41:01;;;;;;;0.20;0.10;;;;;;;-0.69;100.00;101706.97;5068264;28;20445;-56
2021/04/13 04:43:45;;;;;;;0.20;0.10;;;;;;;-0.76;100.00;101707.59;5065126;28;20474;-56
2021/04/13 04:46:32;;;;;;;0.20;0.10;;;;;;;-0.82;100.00;101717.75;5061256;28;21163;-56
2021/04/13 04:49:04;;;;;;;0.20;0.10;;;;;;;-0.71;100.00;101721.69;5061130;28;20532;-56
2021/04/13 04:51:30;;;;;;;0.20;0.10;;;;;;;-0.80;100.00;101727.47;5064528;28;20866;-57
2021/04/13 04:53:57;;;;;;;0.20;0.13;;;;;;;-0.97;100.00;101731.06;5068668;28;20547;-56
2021/04/13 04:56:23;;;;;;;0.20;0.10;;;;;;;-0.95;100.00;101730.34;5066024;28;20468;-56
2021/04/13 04:58:49;;;;;;;0.20;0.10;;;;;;;-0.60;100.00;101729.13;5071035;28;20955;-56
2021/04/13 05:01:15;;;;;;;0.20;0.10;;;;;;;-0.85;100.00;101733.31;5066564;28;20450;-56
2021/04/13 05:03:42;;;;;;;0.20;0.10;;;;;;;-0.94;100.00;101739.94;5070485;28;20528;-56
2021/04/13 05:06:10;;;;;;;0.20;0.10;;;;;;;-0.89;100.00;101742.72;5062271;28;20443;-56
2021/04/13 05:08:36;;;;;;;0.20;0.10;;;;;;;-0.83;100.00;101742.97;5067257;28;20447;-56
2021/04/13 05:11:03;;;;;;;0.20;0.10;;;;;;;-0.81;100.00;101732.63;5065487;28;20454;-56
2021/04/13 05:13:30;;;;;;;0.20;0.10;;;;;;;-0.35;100.00;101746.66;5060632;28;20531;-56
2021/04/13 05:15:58;;;;;;;0.20;0.10;;;;;;;0.01;100.00;101743.69;5061362;28;20455;-56
2021/04/13 05:18:24;;;;;;;0.20;0.10;;;;;;;0.20;99.67;101746.13;5067453;28;20944;-56
2021/04/13 05:20:51;;;;;;;0.20;0.10;;;;;;;0.57;98.51;101752.72;5065863;28;20446;-56
2021/04/13 05:23:19;;;;;;;0.20;0.10;;;;;;;0.83;97.30;101751.91;5060085;28;20539;-55
2021/04/13 05:25:45;;;;;;;0.20;0.10;;;;;;;0.92;95.68;101759.16;5060874;28;20516;-56
2021/04/13 05:28:13;;;;;;;0.20;0.10;;;;;;;1.05;94.61;101748.25;5066264;28;20446;-55
2021/04/13 05:30:39;;;;;;;0.20;0.10;;;;;;;1.16;95.16;101757.38;5062346;28;20487;-56
2021/04/13 05:33:05;;;;;;;0.20;0.10;;;;;;;1.39;94.77;101754.63;5067429;28;20450;-56
2021/04/13 05:35:32;;;;;;;0.20;0.10;;;;;;;1.79;93.07;101756.78;5067011;28;20453;-56
2021/04/13 05:38:06;;;;;;;0.20;0.10;;;;;;;1.64;93.55;101756.25;5059797;28;20508;-55
2021/04/13 05:40:35;;;;;;;0.20;0.10;;;;;;;1.96;93.19;101760.78;5060110;28;20501;-56
2021/04/13 05:43:01;;;;;;;0.20;0.10;;;;;;;1.92;92.40;101766.78;5065924;28;20866;-55
2021/04/13 05:45:31;;;;;;;0.30;0.20;;;;;;;1.87;93.72;101764.84;5066625;28;20454;-56
2021/04/13 05:47:58;;;;;;;0.27;0.20;;;;;;;2.33;93.75;101767.09;5061236;28;20445;-56
2021/04/13 05:50:34;;;;;;;0.20;0.20;;;;;;;2.36;92.52;101768.09;5059507;28;20497;-56
2021/04/13 05:53:00;;;;;;;0.20;0.13;;;;;;;2.45;93.68;101764.81;5063855;28;20446;-56
2021/04/13 05:55:29;;;;;;;0.20;0.10;;;;;;;2.47;93.55;101777.97;5066641;28;20462;-56
2021/04/13 05:57:59;;;;;;;0.20;0.17;;;;;;;2.54;94.38;101766.81;5053488;28;20443;-56
2021/04/13 06:00:26;;;;;;;0.30;0.20;;;;;;;2.41;94.58;101768.22;5064755;28;20442;-56
2021/04/13 06:02:53;;;;;;;0.20;0.10;;;;;;;2.21;95.07;101766.75;5073192;28;20519;-56
2021/04/13 06:05:22;;;;;;;0.30;0.30;;;;;;;2.18;95.94;101769.25;5059539;28;20450;-56
2021/04/13 06:07:49;;;;;;;0.20;0.20;;;;;;;2.21;98.01;101772.00;5067528;28;20876;-56
2021/04/13 06:10:16;;;;;;;0.20;0.10;;;;;;;2.23;97.73;101772.94;5059541;28;20998;-55
2021/04/13 06:12:42;;;;;;;0.20;0.20;;;;;;;2.52;98.18;101779.00;5061495;28;20451;-56
2021/04/13 06:15:12;;;;;;;0.20;0.10;;;;;;;2.73;96.07;101776.97;5066059;28;20475;-56
2021/04/13 06:17:39;;;;;;;0.20;0.10;;;;;;;2.54;96.81;101779.94;5064575;28;20450;-55
2021/04/13 06:20:06;;;;;;;2.87;2.67;;;;;;;2.68;97.95;101791.72;5054782;28;21271;-56
2021/04/13 06:22:32;;;;;;;0.20;0.20;;;;;;;2.44;98.29;101786.66;5055266;28;20451;-56
2021/04/13 06:24:59;;;;;;;0.30;0.27;;;;;;;2.46;99.60;101794.56;5065999;28;20524;-56
2021/04/13 06:27:25;;;;;;;0.20;0.10;;;;;;;2.64;99.91;101795.09;5059881;28;20451;-56
2021/04/13 06:29:51;;;;;;;0.20;0.20;;;;;;;2.56;98.92;101794.88;5065853;28;20533;-56
2021/04/13 06:32:17;;;;;;;0.20;0.10;;;;;;;2.61;99.44;101798.53;5064742;28;20865;-56
2021/04/13 06:34:43;;;;;;;2.40;1.43;;;;;;;2.72;99.77;101797.94;5059308;28;20524;-56
2021/04/13 06:37:11;;;;;;;0.20;0.10;;;;;;;2.72;99.28;101805.81;5060091;28;20457;-56
2021/04/13 06:39:38;;;;;;;0.20;0.10;;;;;;;3.05;99.58;101800.59;5066179;28;20442;-56
2021/04/13 06:42:09;;;;;;;0.20;0.20;;;;;;;3.30;98.72;101796.88;5065863;28;20817;-56
2021/04/13 06:45:04;;;;;;;0.20;0.10;;;;;;;3.72;96.21;101797.03;5064710;28;20462;-56
2021/04/13 06:47:54;;;;;;;0.20;0.10;;;;;;;3.97;95.42;101796.69;5065103;28;20504;-56
2021/04/13 06:50:51;;;;;;;0.20;0.10;;;;;;;4.14;94.98;101805.00;5066061;28;20499;-56
2021/04/13 06:53:23;;;;;;;0.20;0.10;;;;;;;4.00;95.56;101809.97;5063931;28;20470;-56
2021/04/13 06:56:08;;;;;;;0.30;0.20;;;;;;;3.79;96.39;101806.81;5058829;28;20472;-56
2021/04/13 06:58:55;;;;;;;0.20;0.20;;;;;;;3.71;97.43;101809.28;5070707;28;20446;-56
2021/04/13 07:01:50;;;;;;;0.30;0.20;;;;;;;4.05;96.10;101805.66;5063333;28;20442;-56
2021/04/13 07:04:25;;;;;;;0.30;0.20;;;;;;;3.74;97.81;101809.34;5058417;28;20506;-56
2021/04/13 07:07:13;;;;;;;0.30;0.20;;;;;;;4.04;97.57;101810.91;5054119;28;20894;-57
2021/04/13 07:09:48;;;;;;;0.20;0.10;;;;;;;4.06;96.94;101810.06;5065245;28;20489;-57
2021/04/13 07:12:35;;;;;;;0.20;0.20;;;;;;;4.59;95.23;101806.81;5064938;28;20534;-57
2021/04/13 07:15:05;;;;;;;0.30;0.20;;;;;;;4.22;96.68;101807.78;5064473;28;20466;-57
2021/04/13 07:17:52;;;;;;;3.30;0.70;;;;;;;4.30;97.47;101812.38;5063000;28;20970;-57
2021/04/13 07:20:24;;;;;;;0.30;0.20;;;;;;;4.52;96.49;101805.78;5065168;28;20439;-56
2021/04/13 07:22:57;;;;;;;0.27;0.20;;;;;;;4.41;97.32;101807.34;5053111;28;20550;-57
2021/04/13 07:25:28;;;;;;;0.30;0.10;;;;;;;4.60;95.90;101809.47;5079674;22;20506;-53
2021/04/13 07:28:06;;;;;;;0.30;0.20;;;;;;;4.91;95.12;101812.72;5058002;28;20451;-52
2021/04/13 07:30:45;;;;;;;0.23;0.10;;;;;;;4.90;95.18;101805.66;5061103;28;21065;-52
2021/04/13 07:33:16;;;;;;;0.27;0.10;;;;;;;5.05;93.89;101808.59;5065535;28;20496;-52
2021/04/13 07:35:42;;;;;;;0.30;0.10;;;;;;;4.97;94.70;101802.31;5051647;28;21043;-53
2021/04/13 07:38:21;;;;;;;0.30;0.20;;;;;;;5.23;93.04;101808.94;5051999;28;20512;-53
2021/04/13 07:40:56;;;;;;;0.87;0.87;;;;;;;5.36;89.82;101810.03;5051887;28;20449;-53
2021/04/13 07:43:30;;;;;;;0.30;0.10;;;;;;;5.54;90.19;101807.69;5051898;28;20447;-53
2021/04/13 07:46:18;;;;;;;0.30;0.20;;;;;;;5.64;89.06;101804.34;5051832;28;20450;-52
2021/04/13 07:49:06;;;;;;;0.30;0.20;;;;;;;5.55;86.56;101809.47;5053757;28;20876;-53
2021/04/13 07:51:44;;;;;;;0.30;0.20;;;;;;;5.84;88.08;101811.69;5054816;28;20447;-52
2021/04/13 07:54:10;;;;;;;0.30;0.20;;;;;;;6.10;87.63;101813.00;5055606;28;20462;-53
2021/04/13 07:56:42;;;;;;;0.30;0.10;;;;;;;6.41;85.33;101805.47;5055790;28;20450;-52
2021/04/13 07:59:18;;;;;;;0.30;0.20;;;;;;;6.14;80.52;101804.25;5055629;28;21018;-52
2021/04/13 08:01:48;;;;;;;0.30;0.10;;;;;;;6.15;82.20;101807.75;5033311;28;20447;-53
2021/04/13 08:04:20;;;;;;;0.30;0.20;;;;;;;6.32;81.35;101808.91;5055345;28;20482;-52
2021/04/13 08:06:52;;;;;;;0.30;0.20;;;;;;;6.18;79.98;101805.19;5049383;28;20508;-52
2021/04/13 08:09:24;;;;;;;0.30;0.20;;;;;;;6.01;81.49;101809.31;5055330;28;20493;-52
2021/04/13 08:12:05;;;;;;;0.30;0.20;;;;;;;6.39;79.77;101804.56;5055024;28;20947;-54
2021/04/13 08:14:37;;;;;;;0.30;0.10;;;;;;;6.42;79.49;101801.97;5055341;28;20466;-56
2021/04/13 08:17:28;;;;;;;0.30;0.20;;;;;;;6.50;79.49;101806.50;5030600;28;20889;-54
2021/04/13 08:20:03;;;;;;;0.30;0.10;;;;;;;6.61;78.02;101803.09;5022724;28;20520;-55
2021/04/13 08:22:53;;;;;;;0.30;0.20;;;;;;;6.65;79.88;101805.78;5055145;28;20447;-54
2021/04/13 08:25:35;;;;;;;0.30;0.20;;;;;;;7.05;77.80;101808.88;5032907;28;21006;-54
2021/04/13 08:28:24;;;;;;;0.30;0.10;;;;;;;7.02;76.92;101811.50;5048567;28;20874;-54
2021/04/13 08:34:08;;;;;;;0.30;0.20;;;;;;;6.93;76.50;101806.09;5055052;28;20462;-54
2021/04/13 08:36:53;;;;;;;0.30;0.10;;;;;;;6.76;77.62;101805.91;5030361;28;20485;-52
2021/04/13 08:39:48;;;;;;;0.30;0.10;;;;;;;6.69;77.61;101812.88;5054527;28;20504;-52
2021/04/13 08:42:32;;;;;;;0.30;0.20;;;;;;;6.81;76.68;101813.00;5054656;28;20458;-52
2021/04/13 08:45:11;;;;;;;0.30;0.10;;;;;;;6.71;75.97;101823.44;5053346;28;20520;-52
2021/04/13 08:48:00;;;;;;;0.30;0.20;;;;;;;6.53;76.86;101814.44;5053142;28;20866;-52
2021/04/13 08:50:48;;;;;;;0.30;0.17;;;;;;;6.78;77.28;101812.09;5011905;28;20496;-52
2021/04/13 08:53:26;;;;;;;0.30;0.20;;;;;;;7.06;77.12;101818.56;5054445;28;20450;-52
2021/04/13 08:56:03;;;;;;;0.30;0.20;;;;;;;6.83;76.91;101805.97;5054225;28;20837;-52
2021/04/13 08:58:40;;;;;;;0.30;0.13;;;;;;;7.13;76.14;101815.13;5053739;28;20841;-52
2021/04/13 09:01:29;;;;;;;0.30;0.20;;;;;;;6.90;76.33;101809.59;5037787;28;20551;-52
2021/04/13 09:03:57;;;;;;;0.30;0.20;;;;;;;7.23;77.77;101821.38;5054380;28;20482;-52
2021/04/13 09:06:49;;;;;;;1.90;1.90;;;;;;;7.21;76.37;101807.25;5048415;28;20928;-53
2021/04/13 09:09:34;;;;;;;0.30;0.10;;;;;;;7.09;76.28;101821.25;5054028;28;20453;-53
2021/04/13 09:12:12;;;;;;;0.30;0.20;;;;;;;7.11;75.04;101814.22;5054120;28;20457;-53
2021/04/13 09:14:51;;;;;;;0.30;0.17;;;;;;;7.18;75.14;101817.81;5053756;28;20987;-53
2021/04/13 09:17:50;;;;;;;0.30;0.20;;;;;;;7.28;74.11;101814.41;5053902;28;20920;-53
2021/04/13 09:20:24;;;;;;;0.30;0.10;;;;;;;7.50;74.92;101818.09;5028726;28;20508;-53
2021/04/13 09:23:14;;;;;;;0.30;0.10;;;;;;;7.66;73.47;101802.34;5053654;28;20525;-53
2021/04/13 09:25:49;;;;;;;0.30;0.20;;;;;;;7.38;71.87;101813.59;5042118;28;21053;-53
2021/04/13 09:28:20;;;;;;;0.30;0.10;;;;;;;7.34;73.13;101804.75;5053522;28;21037;-53
2021/04/13 09:31:05;;;;;;;0.30;0.20;;;;;;;7.57;71.27;101798.78;5053667;28;20529;-53
2021/04/13 09:33:36;;;;;;;0.30;0.10;;;;;;;7.79;74.30;101797.16;5032905;28;20446;-53
2021/04/13 09:36:10;;;;;;;0.30;0.20;;;;;;;7.76;74.01;101805.09;5053590;28;20482;-53
2021/04/13 09:39:04;;;;;;;0.30;0.20;;;;;;;7.64;70.29;101803.22;5053424;28;20869;-53
2021/04/13 09:42:08;;;;;;;0.30;0.20;;;;;;;7.80;72.89;101799.81;5030200;28;20447;-53
2021/04/13 09:45:06;;;;;;;0.30;0.20;;;;;;;8.16;69.64;101791.22;5019652;28;20478;-53
2021/04/13 09:47:57;;;;;;;0.30;0.20;;;;;;;7.92;68.10;101794.59;5053297;28;20442;-53
2021/04/13 09:50:43;;;;;;;0.30;0.20;;;;;;;7.95;67.48;101785.81;5053431;28;20494;-53
2021/04/13 09:53:30;;;;;;;0.30;0.20;;;;;;;8.24;69.57;101786.88;5053189;28;20889;-53
2021/04/13 09:56:09;;;;;;;0.30;0.20;;;;;;;8.13;68.18;101785.94;5026481;28;20481;-53
2021/04/13 09:58:46;;;;;;;0.30;0.20;;;;;;;8.03;64.42;101789.38;5052897;28;20446;-53
2021/04/13 10:01:49;;;;;;;0.30;0.20;;;;;;;8.30;65.85;101781.59;5037103;28;20505;-53
2021/04/13 10:04:30;;;;;;;0.30;0.20;;;;;;;8.77;64.81;101778.28;5032449;28;20471;-53
2021/04/13 10:07:16;;;;;;;0.30;0.20;;;;;;;8.35;63.20;101778.09;5048126;28;20451;-53
2021/04/13 10:09:43;;;;;;;0.30;0.20;;;;;;;8.44;63.06;101787.00;5052996;28;20510;-53
2021/04/13 10:12:25;;;;;;;0.30;0.20;;;;;;;7.91;63.24;101790.19;5052474;28;20447;-53
2021/04/13 10:15:06;;;;;;;0.30;0.20;;;;;;;7.66;64.92;101788.25;5052891;28;20510;-53
2021/04/13 10:17:52;;;;;;;0.30;0.20;;;;;;;7.12;64.31;101786.91;5052993;28;20451;-53
2021/04/13 10:20:35;;;;;;;0.30;0.20;;;;;;;7.53;65.71;101781.97;5053145;28;20512;-53
2021/04/13 10:23:26;;;;;;;0.30;0.10;;;;;;;7.93;62.03;101774.31;5052657;28;20450;-53
2021/04/13 10:26:14;;;;;;;0.30;0.20;;;;;;;8.63;64.20;101782.63;5052424;28;20512;-53
2021/04/13 10:29:01;;;;;;;0.30;0.20;;;;;;;8.15;65.98;101778.00;5046985;28;20442;-53
2021/04/13 10:31:49;;;;;;;0.30;0.20;;;;;;;7.98;64.07;101768.19;5052370;28;20516;-53
2021/04/13 10:34:34;;;;;;;0.30;0.13;;;;;;;7.97;64.15;101771.72;5052648;28;20936;-53
2021/04/13 10:37:22;;;;;;;0.30;0.20;;;;;;;8.08;61.10;101768.22;5052738;28;20447;-53
2021/04/13 10:40:24;;;;;;;0.30;0.20;;;;;;;8.45;61.93;101751.66;5029761;28;20489;-53
2021/04/13 10:43:21;;;;;;;0.30;0.20;;;;;;;8.89;60.49;101756.19;5026228;28;20928;-53
2021/04/13 10:46:25;;;;;;;0.30;0.20;;;;;;;8.77;57.79;101758.81;5052200;28;20486;-53
2021/04/13 10:49:32;;;;;;;0.30;0.20;;;;;;;7.96;57.64;101758.47;5052646;28;20461;-53
2021/04/13 10:52:28;;;;;;;0.30;0.20;;;;;;;8.18;62.08;101759.44;5052125;28;20928;-53
2021/04/13 10:55:18;;;;;;;0.30;0.20;;;;;;;8.31;64.52;101756.00;5052541;28;20467;-53
2021/04/13 10:58:02;;;;;;;0.30;0.20;;;;;;;8.23;65.71;101752.44;5002872;28;20455;-53
2021/04/13 11:00:37;;;;;;;0.30;0.20;;;;;;;8.15;64.97;101756.78;5040615;28;20808;-53
2021/04/13 11:03:13;;;;;;;0.30;0.20;;;;;;;8.08;63.58;101758.50;5045021;28;20457;-54
2021/04/13 11:06:00;;;;;;;0.30;0.20;;;;;;;8.15;64.10;101754.16;5027264;28;20469;-56
2021/04/13 11:09:04;;;;;;;0.30;0.20;;;;;;;8.18;61.49;101754.16;5046133;28;20446;-53
2021/04/13 11:12:00;;;;;;;0.30;0.20;;;;;;;8.53;62.74;101751.69;5052258;28;20493;-53
2021/04/13 11:14:55;;;;;;;0.30;0.20;;;;;;;8.88;61.57;101743.81;5052025;28;21029;-53
2021/04/13 11:17:30;;;;;;;0.30;0.20;;;;;;;8.84;62.12;101755.31;5032626;28;20496;-53
2021/04/13 11:20:00;;;;;;;0.30;0.20;;;;;;;8.76;62.20;101751.75;5050942;28;20451;-53
2021/04/13 11:22:51;;;;;;;0.30;0.20;;;;;;;8.57;63.87;101757.00;5054051;28;20446;-53
2021/04/13 11:25:53;;;;;;;0.30;0.20;;;;;;;8.62;65.47;101754.34;5034268;28;21052;-53
2021/04/13 11:28:34;;;;;;;0.30;0.20;;;;;;;8.55;64.88;101749.94;5036642;28;20454;-53
2021/04/13 11:31:00;;;;;;;0.30;0.20;;;;;;;8.71;64.54;101750.88;5056172;28;20486;-53
2021/04/13 11:33:45;;;;;;;0.30;0.20;;;;;;;8.33;64.60;101749.81;5055857;28;20451;-52
2021/04/13 11:36:11;;;;;;;0.30;0.20;;;;;;;8.53;67.09;101741.09;5055738;28;20446;-53
2021/04/13 11:38:52;;;;;;;0.30;0.20;;;;;;;8.61;64.63;101747.28;5056054;28;20455;-53
2021/04/13 11:41:24;;;;;;;0.30;0.20;;;;;;;8.59;65.24;101738.44;5030519;28;20447;-53
2021/04/13 11:44:06;;;;;;;0.30;0.20;;;;;;;8.49;65.28;101734.88;5055661;28;20517;-53
2021/04/13 11:46:32;;;;;;;0.30;0.20;;;;;;;8.71;66.33;101740.25;5055636;28;20442;-53
2021/04/13 11:49:09;;;;;;;0.30;0.20;;;;;;;8.49;64.94;101736.66;5055753;28;20504;-53
2021/04/13 11:51:53;;;;;;;0.30;0.20;;;;;;;8.89;64.68;101737.63;5055655;28;20994;-53
2021/04/13 11:54:49;;;;;;;0.30;0.20;;;;;;;9.04;61.46;101740.31;5030177;28;20821;-53
2021/04/13 11:57:22;;;;;;;0.30;0.17;;;;;;;9.42;59.47;101731.47;5051027;28;20444;-53
2021/04/13 12:00:10;;;;;;;0.30;0.20;;;;;;;9.43;59.66;101738.56;5040927;28;20443;-54
2021/04/13 12:02:42;;;;;;;0.30;0.13;;;;;;;9.43;60.11;101731.47;5033054;28;20462;-54
2021/04/13 12:05:37;;;;;;;0.30;0.20;;;;;;;9.32;58.63;101732.34;5051707;28;20502;-53
2021/04/13 12:08:07;;;;;;;0.30;0.20;;;;;;;9.55;58.55;101725.28;5050166;28;20457;-53
2021/04/13 12:10:33;;;;;;;0.30;0.20;;;;;;;9.49;59.47;101733.25;5055437;28;20486;-53
2021/04/13 12:13:09;;;;;;;0.30;0.20;;;;;;;9.53;59.16;101740.31;5055219;28;20447;-53
2021/04/13 12:15:38;;;;;;;0.30;0.20;;;;;;;9.16;59.25;101732.34;5054948;28;20971;-54
2021/04/13 12:18:35;;;;;;;0.30;0.10;;;;;;;9.28;60.41;101742.09;5055191;28;20534;-53
2021/04/13 12:21:39;;;;;;;0.30;0.20;;;;;;;9.34;61.44;101734.16;5047253;28;20461;-53